Sugar Hill, New Hampshire
Current Conditions -  °F | °C
As of 5:52 PM on Tuesday 27 Jan 2015 (Local Time) from KHIE Reporting Station
Light Snow Light Snow  
Wind Chill: -10°   Ceiling: 1200
Heat Index:   Visibility: 1mi
Dew Point:   Wind: 14mph
Humidity: 77%   Direction: 350°N
Pressure: 29.71"   Gusts: 24mph
Location:  44.22°N, 71.8°W
Report Text: KHIE 272252Z AUTO 35012G21KT 1SM -SN VV012 M14/M17 A2971 RMK AO2 SLP083 P0000 T11391172
Loading
Personal Weather Stations






























Interactive Weather Map New forecast layout! Learn more

10-Day Weather Forecast

Advertisements
Track Severe Weather on mobile